< < Back
Terminal Aerodrome Forecast


Current Version              Previous Versions:   1  2  3  4  5  6  7  8  9  

Terminal Aerodrome Forecast

203
FTUS42 KTAE 281120
TAFDHN
TAF
KDHN 281120Z 2812/2912 04003KT P6SM SCT250
     FM281500 09009KT P6SM SCT050=

Latest METAR

622
SAUS70 KWBC 290800
MTRDHN
METAR KDHN 290753Z AUTO 07004KT 10SM CLR 24/23 A3005 RMK AO2 SLP169
T02440228


USA.gov is the U.S. government's official web portal to all federal, state and local government web resources and services.